Terminal Aerodrome Forecast
Issued by NWS Mt. Holly, NJ

Home | Current Version | Previous Version | Text Only | Print | Product List | Glossary On
Versions: 1 2 3 4 5 6 7 8 9 10 11 12 13 14 15 16 17 18
000
FTUS41 KPHI 261200 AAA
TAFTTN
TAF AMD
KTTN 261255Z 2613/2712 VRB03KT P6SM BKN100
      TEMPO 2613/2615 6SM -SHRA OVC050
     FM261500 23008KT P6SM SCT050
     FM270000 21007KT P6SM BKN250
     FM270900 VRB03KT 4SM BR OVC100=

USA.gov is the U.S. government's official web portal to all federal, state and local government web resources and services.